Time;durP1;ratioP1;P1;durP2;ratioP2;P2;SDS_P1;SDS_P2;PMS_P1;PMS_P2;Temp;Humidity;BMP_temperature;BMP_pressure;BME280_temperature;BME280_humidity;BME280_pressure;Samples;Min_cycle;Max_cycle;Signal;HPM_P1;HPM_P2
2021/05/16 00:00:14;;;;;;;11.08;6.20;;;;;;;5.14;90.55;92506.14;1845613;77;21016;-78
2021/05/16 00:02:40;;;;;;;10.75;6.08;;;;;;;5.14;90.66;92504.21;1766964;77;21181;-79
2021/05/16 00:05:09;;;;;;;7.95;5.22;;;;;;;5.12;90.60;92506.53;1836295;77;21403;-78
2021/05/16 00:07:35;;;;;;;13.38;6.12;;;;;;;5.13;90.46;92507.30;1808668;77;21590;-76
2021/05/16 00:10:03;;;;;;;6.47;4.33;;;;;;;5.12;90.07;92509.23;1801871;77;21110;-75
2021/05/16 00:12:31;;;;;;;7.83;4.28;;;;;;;5.10;90.00;92498.81;1845872;77;21612;-74
2021/05/16 00:14:58;;;;;;;4.65;3.65;;;;;;;5.06;90.00;92508.82;1758635;77;21145;-77
2021/05/16 00:17:25;;;;;;;4.78;3.72;;;;;;;5.03;90.77;92512.27;1843647;77;21043;-78
2021/05/16 00:19:52;;;;;;;11.73;3.77;;;;;;;4.96;91.07;92510.91;1799260;77;21101;-76
2021/05/16 00:22:18;;;;;;;5.22;3.65;;;;;;;4.89;91.29;92517.65;1808884;77;20973;-75
2021/05/16 00:24:45;;;;;;;4.22;2.95;;;;;;;4.81;90.29;92518.20;1843490;77;21529;-77
2021/05/16 00:27:12;;;;;;;5.55;2.95;;;;;;;4.81;90.29;92518.20;1788808;80;21092;-77
2021/05/16 00:29:39;;;;;;;9.03;3.00;;;;;;;4.77;90.15;92512.01;1811190;79;21944;-77
2021/05/16 00:32:06;;;;;;;3.25;1.98;;;;;;;4.74;90.04;92506.61;1799511;79;21103;-77
2021/05/16 00:34:32;;;;;;;2.95;2.15;;;;;;;4.68;90.31;92505.45;1782878;80;21050;-76
2021/05/16 00:36:59;;;;;;;2.47;2.27;;;;;;;4.62;90.54;92506.38;1774655;79;21071;-80
2021/05/16 00:39:25;;;;;;;4.90;3.10;;;;;;;4.52;90.76;92505.78;1775239;80;21694;-77
2021/05/16 00:41:52;;;;;;;4.67;3.62;;;;;;;4.48;91.35;92508.46;1774210;80;21637;-74
2021/05/16 00:44:22;;;;;;;7.83;4.45;;;;;;;4.46;91.80;92504.02;1774573;80;21084;-78
2021/05/16 00:46:49;;;;;;;10.65;4.35;;;;;;;4.49;92.15;92498.46;1775009;80;21535;-78
2021/05/16 00:49:16;;;;;;;5.75;3.47;;;;;;;4.53;92.14;92495.97;1775358;79;21009;-81
2021/05/16 00:51:43;;;;;;;4.30;3.20;;;;;;;4.56;92.03;92497.91;1775025;79;21139;-77
2021/05/16 00:54:10;;;;;;;5.28;3.47;;;;;;;4.57;92.07;92486.56;1774986;79;21024;-79
2021/05/16 00:56:37;;;;;;;3.85;3.12;;;;;;;4.57;92.28;92485.98;1774207;80;21079;-77
2021/05/16 00:59:05;;;;;;;8.80;3.33;;;;;;;4.65;92.55;92488.13;1759244;80;21085;-76
2021/05/16 01:01:33;;;;;;;2.58;2.15;;;;;;;4.72;91.37;92496.81;1804610;78;21119;-78
2021/05/16 01:03:59;;;;;;;2.05;1.85;;;;;;;4.72;91.37;92496.81;1757530;79;21146;-76
2021/05/16 01:06:27;;;;;;;3.95;2.90;;;;;;;4.56;91.19;92487.14;1798203;79;21089;-79
2021/05/16 01:08:57;;;;;;;9.20;4.47;;;;;;;4.43;91.65;92491.31;1764999;79;22232;-77
2021/05/16 01:11:22;;;;;;;2.98;2.30;;;;;;;4.43;91.65;92491.31;1757335;80;21656;-76
2021/05/16 01:13:50;;;;;;;4.47;2.33;;;;;;;4.40;91.24;92494.78;1757288;80;21510;-75
2021/05/16 01:16:19;;;;;;;2.22;1.15;;;;;;;4.33;91.36;92498.78;1759189;81;21573;-77
2021/05/16 01:18:46;;;;;;;4.03;2.00;;;;;;;4.33;91.36;92498.78;1771343;81;21016;-76
2021/05/16 01:21:17;;;;;;;3.55;2.45;;;;;;;4.24;91.16;92492.95;1758538;80;21079;-77
2021/05/16 01:23:46;;;;;;;4.72;3.27;;;;;;;4.19;91.77;92494.67;1774182;80;21115;-77
2021/05/16 01:26:15;;;;;;;5.75;3.52;;;;;;;4.14;92.15;92492.54;1770161;80;21201;-76
2021/05/16 01:28:43;;;;;;;4.92;2.83;;;;;;;4.18;92.43;92498.52;1756282;80;21091;-76
2021/05/16 01:31:12;;;;;;;6.00;3.30;;;;;;;4.19;92.37;92496.02;1748142;81;21604;-77
2021/05/16 01:33:38;;;;;;;6.85;4.00;;;;;;;4.19;92.30;92477.95;1771647;81;21104;-78
2021/05/16 01:36:05;;;;;;;6.05;3.47;;;;;;;4.21;92.43;92476.22;1760579;79;21055;-77
2021/05/16 01:38:33;;;;;;;4.75;3.17;;;;;;;4.20;92.44;92478.14;1772772;80;21083;-80
2021/05/16 01:40:59;;;;;;;6.50;2.87;;;;;;;4.16;92.58;92481.39;1773163;80;21127;-75
2021/05/16 01:43:34;;;;;;;4.28;2.40;;;;;;;4.14;92.89;92477.74;1757213;81;21079;-75
2021/05/16 01:46:00;;;;;;;2.87;2.40;;;;;;;4.15;92.80;92474.47;1724630;81;21123;-76
2021/05/16 01:48:27;;;;;;;3.50;2.50;;;;;;;4.11;92.21;92472.34;1756844;80;21083;-77
2021/05/16 01:50:55;;;;;;;3.25;2.10;;;;;;;4.11;92.45;92469.66;1766495;81;21079;-79
2021/05/16 01:53:21;;;;;;;4.97;2.15;;;;;;;4.13;92.48;92469.45;1786446;79;21072;-77
2021/05/16 01:55:51;;;;;;;4.50;2.20;;;;;;;4.13;92.36;92469.45;1803698;79;21493;-76
2021/05/16 01:58:17;;;;;;;1.92;1.27;;;;;;;4.14;92.33;92471.59;1803205;79;21810;-79
2021/05/16 02:00:44;;;;;;;2.47;1.80;;;;;;;4.13;92.04;92481.56;1803630;79;21126;-78
2021/05/16 02:03:12;;;;;;;2.62;2.20;;;;;;;4.03;91.60;92484.98;1802521;79;21063;-74
2021/05/16 02:05:41;;;;;;;4.40;2.47;;;;;;;3.97;91.92;92477.64;1802048;79;21234;-79
2021/05/16 02:08:07;;;;;;;2.17;1.57;;;;;;;3.93;92.15;92490.30;1803876;79;21621;-78
2021/05/16 02:10:35;;;;;;;1.95;1.77;;;;;;;3.91;92.50;92487.97;1803804;79;21137;-77
2021/05/16 02:13:04;;;;;;;2.77;1.92;;;;;;;3.94;92.71;92482.42;1802610;79;21597;-76
2021/05/16 02:15:33;;;;;;;2.77;1.80;;;;;;;3.94;92.51;92477.05;1803134;79;21008;-78
2021/05/16 02:18:01;;;;;;;2.08;1.30;;;;;;;3.89;92.24;92480.29;1803852;79;21028;-78
2021/05/16 02:20:28;;;;;;;2.77;2.02;;;;;;;3.90;92.49;92485.09;1803663;79;21534;-78
2021/05/16 02:22:55;;;;;;;3.87;2.67;;;;;;;3.94;92.65;92483.19;1796430;79;21119;-79
2021/05/16 02:25:21;;;;;;;3.30;2.72;;;;;;;3.95;92.77;92484.75;1803772;79;21665;-79
2021/05/16 02:27:48;;;;;;;5.28;3.35;;;;;;;3.93;92.86;92495.68;1803545;79;21119;-78
2021/05/16 02:30:16;;;;;;;3.45;2.87;;;;;;;3.89;93.11;92485.66;1801456;78;21095;-77
2021/05/16 02:32:43;;;;;;;4.75;2.47;;;;;;;3.89;93.18;92491.63;1797337;78;21354;-77
2021/05/16 02:35:12;;;;;;;5.97;2.40;;;;;;;3.86;93.08;92495.05;1783056;80;21699;-77
2021/05/16 02:37:49;;;;;;;4.42;2.52;;;;;;;3.83;93.19;92494.45;1773559;80;21938;-78
2021/05/16 02:40:16;;;;;;;4.33;2.85;;;;;;;3.81;93.56;92490.80;1773635;80;21012;-77
2021/05/16 02:42:43;;;;;;;3.92;2.87;;;;;;;3.84;93.82;92496.02;1773809;80;21084;-77
2021/05/16 02:45:13;;;;;;;3.85;2.00;;;;;;;3.83;93.78;92493.11;1787114;80;21063;-76
2021/05/16 02:47:39;;;;;;;3.72;2.65;;;;;;;3.86;93.88;92493.71;1800846;79;21059;-76
2021/05/16 02:50:07;;;;;;;4.80;2.22;;;;;;;3.87;93.73;92499.28;1812357;78;21035;-79
2021/05/16 02:52:35;;;;;;;4.12;2.42;;;;;;;3.92;93.77;92496.26;1828214;77;21082;-78
2021/05/16 02:55:04;;;;;;;6.53;2.70;;;;;;;3.99;93.81;92496.88;1753097;81;21630;-77
2021/05/16 02:57:30;;;;;;;5.33;3.22;;;;;;;4.03;93.78;92499.78;1751998;81;21073;-78
2021/05/16 02:59:57;;;;;;;4.25;2.50;;;;;;;4.04;93.58;92497.86;1795968;77;21044;-78
2021/05/16 03:02:25;;;;;;;2.92;2.37;;;;;;;4.03;93.38;92502.47;1763024;81;21048;-76
2021/05/16 03:04:52;;;;;;;6.95;2.60;;;;;;;4.02;93.19;92497.45;1831212;78;20986;-80
2021/05/16 03:07:19;;;;;;;7.37;2.42;;;;;;;4.03;92.98;92513.23;1838727;77;21554;-78
2021/05/16 03:09:45;;;;;;;3.33;1.95;;;;;;;4.04;92.52;92505.93;1757471;78;21159;-77
2021/05/16 03:12:13;;;;;;;5.72;2.20;;;;;;;4.03;92.15;92497.09;1771195;80;21868;-77
2021/05/16 03:14:42;;;;;;;2.30;2.10;;;;;;;4.01;92.10;92496.68;1782252;80;21100;-77
2021/05/16 03:17:08;;;;;;;1.85;1.60;;;;;;;4.04;92.13;92497.28;1774257;80;21606;-79
2021/05/16 03:19:35;;;;;;;2.55;2.00;;;;;;;4.07;91.92;92494.42;1731888;82;21213;-77
2021/05/16 03:22:02;;;;;;;2.55;2.22;;;;;;;4.03;91.92;92489.02;1786730;80;21332;-77
2021/05/16 03:24:31;;;;;;;5.85;2.83;;;;;;;4.06;92.40;92490.17;1764152;81;22054;-76
2021/05/16 03:26:58;;;;;;;5.80;3.20;;;;;;;4.11;92.61;92489.25;1799831;77;21065;-80
2021/05/16 03:29:25;;;;;;;3.42;2.60;;;;;;;4.19;92.68;92486.02;1762372;81;21672;-78
2021/05/16 03:31:52;;;;;;;3.17;2.37;;;;;;;4.27;92.41;92487.59;1834919;77;21689;-80
2021/05/16 03:34:19;;;;;;;7.35;2.67;;;;;;;4.32;92.34;92485.11;1838838;78;21125;-77
2021/05/16 03:36:45;;;;;;;5.42;2.98;;;;;;;4.39;92.16;92489.18;1775993;78;21158;-77
2021/05/16 03:39:12;;;;;;;3.85;2.90;;;;;;;4.45;92.13;92486.91;1762717;80;21638;-78
2021/05/16 03:41:38;;;;;;;9.58;3.40;;;;;;;4.49;91.63;92483.08;1763095;80;20998;-78
2021/05/16 03:44:06;;;;;;;3.17;2.40;;;;;;;4.53;91.37;92491.16;1771073;80;21116;-76
2021/05/16 03:46:32;;;;;;;1.98;1.80;;;;;;;4.55;90.37;92492.34;1793788;80;21115;-77
2021/05/16 03:49:00;;;;;;;1.85;1.55;;;;;;;4.55;90.37;92492.34;1739367;80;21100;-75
2021/05/16 03:51:27;;;;;;;2.40;1.62;;;;;;;4.53;90.11;92497.31;1780653;80;21028;-80
2021/05/16 03:53:54;;;;;;;3.85;1.40;;;;;;;4.47;90.44;92490.75;1768700;81;21025;-76
2021/05/16 03:56:20;;;;;;;3.12;1.60;;;;;;;4.47;90.86;92489.98;1825616;77;21614;-76
2021/05/16 03:58:47;;;;;;;1.55;1.45;;;;;;;4.53;91.60;92488.47;1763734;81;21127;-79
2021/05/16 04:01:13;;;;;;;2.45;1.87;;;;;;;4.67;91.75;92487.77;1766932;78;21665;-76
2021/05/16 04:03:40;;;;;;;2.33;1.55;;;;;;;4.78;91.49;92483.18;1763107;81;21136;-78
2021/05/16 04:06:07;;;;;;;2.62;2.00;;;;;;;4.89;91.44;92489.36;1771006;81;21582;-78
2021/05/16 04:08:34;;;;;;;4.50;3.62;;;;;;;4.98;91.29;92483.02;1771635;81;21101;-75
2021/05/16 04:11:01;;;;;;;8.63;4.00;;;;;;;5.18;90.49;92485.36;1767874;81;21033;-76
2021/05/16 04:13:27;;;;;;;11.78;6.10;;;;;;;5.18;90.49;92485.36;1767326;81;21524;-75
2021/05/16 04:15:54;;;;;;;3.47;3.10;;;;;;;5.20;90.32;92483.06;1767315;81;21676;-76
2021/05/16 04:18:21;;;;;;;4.83;3.00;;;;;;;5.20;90.23;92479.78;1766867;81;21114;-75
2021/05/16 04:20:48;;;;;;;3.45;3.12;;;;;;;5.21;90.07;92483.25;1767340;81;21146;-76
2021/05/16 04:23:14;;;;;;;4.05;3.45;;;;;;;5.19;89.97;92482.84;1766695;81;21177;-79
2021/05/16 04:25:42;;;;;;;8.15;3.30;;;;;;;5.19;90.06;92485.54;1770527;81;21083;-80
2021/05/16 04:28:09;;;;;;;6.67;4.85;;;;;;;5.22;90.35;92486.13;1788879;80;20976;-79
2021/05/16 04:30:35;;;;;;;5.78;4.20;;;;;;;5.26;90.47;92486.32;1763428;81;21085;-80
2021/05/16 04:33:02;;;;;;;7.05;4.75;;;;;;;5.30;90.53;92484.42;1808016;77;21153;-76
2021/05/16 04:35:28;;;;;;;16.82;10.80;;;;;;;5.35;90.91;92479.22;1755196;80;21613;-77
2021/05/16 04:37:55;;;;;;;16.93;11.53;;;;;;;5.44;91.11;92480.18;1783114;80;21616;-76
2021/05/16 04:40:21;;;;;;;14.53;9.78;;;;;;;5.54;91.25;92482.11;1782745;80;21072;-75
2021/05/16 04:42:47;;;;;;;14.73;9.80;;;;;;;5.64;91.35;92477.85;1783792;80;20998;-77
2021/05/16 04:45:14;;;;;;;6.33;5.05;;;;;;;5.71;91.32;92467.83;1782168;80;21597;-79
2021/05/16 04:47:41;;;;;;;5.47;4.40;;;;;;;5.81;90.88;92476.50;1774918;80;21706;-80
2021/05/16 04:50:08;;;;;;;7.12;4.25;;;;;;;5.85;90.42;92478.61;1731657;82;21124;-75
2021/05/16 04:52:34;;;;;;;4.20;3.20;;;;;;;5.91;90.69;92474.19;1786166;80;21048;-76
2021/05/16 04:55:01;;;;;;;3.95;2.70;;;;;;;6.02;90.70;92474.39;1763480;80;21025;-76
2021/05/16 04:57:27;;;;;;;2.65;2.45;;;;;;;6.13;90.31;92470.31;1799219;77;21094;-78
2021/05/16 04:59:53;;;;;;;4.40;2.67;;;;;;;6.23;89.85;92467.38;1749046;81;21186;-76
2021/05/16 05:02:20;;;;;;;2.85;2.60;;;;;;;6.27;89.62;92468.14;1758989;81;21685;-77
2021/05/16 05:04:47;;;;;;;3.47;3.02;;;;;;;6.30;89.62;92470.83;1754411;81;21502;-76
2021/05/16 05:07:16;;;;;;;3.67;2.45;;;;;;;6.33;89.54;92469.28;1735438;81;21089;-77
2021/05/16 05:09:43;;;;;;;3.12;2.27;;;;;;;6.33;89.16;92461.19;1768278;80;21079;-81
2021/05/16 05:12:10;;;;;;;4.28;3.22;;;;;;;6.31;89.12;92460.80;1780794;79;21054;-76
2021/05/16 05:14:37;;;;;;;3.42;2.67;;;;;;;6.31;89.30;92460.21;1782885;80;21835;-74
2021/05/16 05:17:04;;;;;;;4.60;2.67;;;;;;;6.32;89.49;92461.77;1782058;80;21737;-78
2021/05/16 05:19:30;;;;;;;5.40;3.55;;;;;;;6.38;89.72;92461.36;1754465;80;21088;-76
2021/05/16 05:21:57;;;;;;;5.42;3.47;;;;;;;6.46;89.88;92457.47;1769363;80;21067;-79
2021/05/16 05:24:24;;;;;;;3.85;3.40;;;;;;;6.56;89.58;92459.36;1769825;80;21115;-76
2021/05/16 05:26:51;;;;;;;4.40;3.30;;;;;;;6.66;89.64;92459.90;1754641;80;21195;-79
2021/05/16 05:29:19;;;;;;;4.37;2.80;;;;;;;6.78;89.61;92464.85;1775742;80;21084;-80
2021/05/16 05:31:45;;;;;;;5.62;3.30;;;;;;;6.92;89.74;92449.70;1757159;80;21135;-77
2021/05/16 05:34:13;;;;;;;4.37;3.05;;;;;;;7.06;89.12;92451.75;1714038;83;21186;-79
2021/05/16 05:36:39;;;;;;;10.43;6.10;;;;;;;7.22;88.69;92458.03;1754805;81;21173;-80
2021/05/16 05:39:06;;;;;;;10.93;6.70;;;;;;;7.33;88.56;92455.23;1730744;80;21070;-77
2021/05/16 05:44:02;;;;;;;15.68;9.23;;;;;;;7.60;87.75;92448.67;1723673;82;21057;-80
2021/05/16 05:46:29;;;;;;;9.88;6.37;;;;;;;7.75;87.16;92451.44;1719629;82;21149;-78
2021/05/16 05:48:56;;;;;;;7.12;4.40;;;;;;;7.92;86.71;92448.37;1718213;82;21084;-79
2021/05/16 05:51:22;;;;;;;6.00;3.00;;;;;;;8.27;87.57;92441.05;1711818;83;21120;-79
2021/05/16 05:53:49;;;;;;;4.00;3.10;;;;;;;8.93;86.45;92440.67;1711763;83;21064;-77
2021/05/16 05:56:16;;;;;;;4.70;3.45;;;;;;;9.76;85.44;92429.95;1711734;83;21116;-75
2021/05/16 05:58:42;;;;;;;3.75;3.35;;;;;;;10.52;81.13;92435.59;1758228;81;21800;-79
2021/05/16 06:01:08;;;;;;;3.37;2.90;;;;;;;11.07;78.26;92442.25;1762832;81;21124;-77
2021/05/16 06:03:34;;;;;;;5.22;2.75;;;;;;;11.54;75.92;92443.33;1802846;78;21140;-79
2021/05/16 06:06:01;;;;;;;3.22;2.20;;;;;;;12.11;75.63;92438.68;1709376;82;21020;-79
2021/05/16 06:08:27;;;;;;;2.33;2.00;;;;;;;12.82;72.00;92429.77;1716832;83;21156;-79
2021/05/16 06:10:54;;;;;;;2.02;1.85;;;;;;;13.43;69.63;92428.81;1795109;78;21095;-80
2021/05/16 06:13:20;;;;;;;1.60;1.50;;;;;;;13.99;67.21;92426.85;1756741;78;21074;-75
2021/05/16 06:15:47;;;;;;;2.70;2.02;;;;;;;14.50;64.93;92431.42;1734724;82;21632;-76
2021/05/16 06:18:13;;;;;;;6.08;3.33;;;;;;;14.96;63.95;92425.67;1735499;82;21233;-76
2021/05/16 06:20:40;;;;;;;5.75;4.62;;;;;;;15.17;61.66;92421.40;1734204;81;21059;-76
2021/05/16 06:23:08;;;;;;;2.70;2.50;;;;;;;15.16;61.15;92423.23;1733809;81;21507;-75
2021/05/16 06:25:34;;;;;;;2.77;2.47;;;;;;;14.97;60.31;92414.91;1735040;81;21536;-79
2021/05/16 06:28:01;;;;;;;3.65;2.67;;;;;;;14.71;60.95;92414.88;1735183;81;22179;-76
2021/05/16 06:30:27;;;;;;;3.83;3.08;;;;;;;14.45;61.40;92414.95;1748356;79;21045;-80
2021/05/16 06:35:21;;;;;;;5.17;3.52;;;;;;;13.91;61.74;92420.67;1713596;83;21103;-77
2021/05/16 06:37:49;;;;;;;4.67;3.83;;;;;;;13.57;63.49;92413.94;1735777;82;21579;-80
2021/05/16 06:40:15;;;;;;;3.47;3.15;;;;;;;13.30;64.02;92419.23;1787007;77;21110;-78
2021/05/16 06:42:43;;;;;;;3.65;3.30;;;;;;;13.00;65.09;92421.84;1749185;80;21690;-78
2021/05/16 06:45:11;;;;;;;3.90;2.95;;;;;;;12.74;66.23;92420.27;1762059;80;21102;-77
2021/05/16 06:47:38;;;;;;;4.17;2.87;;;;;;;12.56;67.18;92413.93;1773643;80;21091;-77
2021/05/16 06:50:06;;;;;;;3.02;2.77;;;;;;;12.48;67.84;92408.51;1762780;80;21064;-78
2021/05/16 06:52:33;;;;;;;7.58;3.52;;;;;;;12.48;68.55;92411.23;1801046;78;22002;-79
2021/05/16 06:55:00;;;;;;;3.40;2.47;;;;;;;12.47;68.12;92412.44;1792807;78;21139;-75
2021/05/16 06:57:26;;;;;;;2.33;2.12;;;;;;;12.42;67.99;92412.98;1745988;81;21179;-74
2021/05/16 06:59:52;;;;;;;2.17;2.02;;;;;;;12.34;68.62;92408.31;1760332;80;21455;-77
2021/05/16 07:02:19;;;;;;;3.55;2.17;;;;;;;12.24;68.88;92404.66;1761561;80;21378;-78
2021/05/16 07:04:48;;;;;;;3.62;2.12;;;;;;;12.18;69.30;92407.73;1759618;81;21423;-78
2021/05/16 07:07:15;;;;;;;2.77;1.95;;;;;;;12.15;69.53;92403.17;1760412;80;21638;-78
2021/05/16 07:09:42;;;;;;;2.50;1.80;;;;;;;12.12;69.80;92402.66;1761525;80;21052;-80
2021/05/16 07:12:11;;;;;;;3.72;1.80;;;;;;;12.10;69.58;92408.52;1761911;80;21061;-79
2021/05/16 07:14:39;;;;;;;3.87;2.20;;;;;;;12.10;69.34;92398.98;1760566;80;21108;-73
2021/05/16 07:17:06;;;;;;;1.62;1.50;;;;;;;12.12;68.76;92402.05;1786521;79;21092;-77
2021/05/16 07:19:33;;;;;;;2.55;1.40;;;;;;;12.15;67.24;92397.72;1793694;79;21115;-79
2021/05/16 07:21:59;;;;;;;1.75;1.65;;;;;;;12.19;68.80;92401.11;1794143;79;21040;-74
2021/05/16 07:24:26;;;;;;;1.70;1.37;;;;;;;12.22;68.67;92394.78;1795975;79;21590;-81
2021/05/16 07:26:53;;;;;;;2.27;1.92;;;;;;;12.21;69.32;92395.98;1795214;79;21037;-80
2021/05/16 07:29:20;;;;;;;2.27;2.10;;;;;;;12.19;69.52;92398.39;1795794;79;21028;-80
2021/05/16 07:31:47;;;;;;;1.85;1.75;;;;;;;12.16;70.29;92392.42;1793596;79;21111;-76
2021/05/16 07:34:14;;;;;;;2.42;1.70;;;;;;;12.13;70.47;92390.55;1793465;79;21068;-79
2021/05/16 07:36:40;;;;;;;2.95;1.90;;;;;;;12.12;71.22;92393.13;1795404;79;21139;-77
2021/05/16 07:39:06;;;;;;;2.15;1.80;;;;;;;12.11;70.98;92395.08;1795622;79;21132;-81
2021/05/16 07:41:33;;;;;;;3.05;1.90;;;;;;;12.11;70.75;92392.93;1795508;79;21088;-79
2021/05/16 07:43:59;;;;;;;2.83;1.98;;;;;;;12.08;71.13;92389.13;1795148;79;21116;-81
2021/05/16 07:46:26;;;;;;;3.12;2.00;;;;;;;12.09;71.15;92392.61;1794408;79;21463;-79
2021/05/16 07:48:52;;;;;;;2.30;2.10;;;;;;;12.11;71.82;92391.00;1792218;79;21052;-77
2021/05/16 07:51:18;;;;;;;3.30;2.40;;;;;;;12.16;72.10;92386.98;1793758;79;21076;-80
2021/05/16 07:53:46;;;;;;;4.33;2.58;;;;;;;12.20;71.86;92390.97;1793967;79;21174;-77
2021/05/16 07:56:12;;;;;;;2.05;1.85;;;;;;;12.23;71.79;92390.12;1794342;79;21112;-77
2021/05/16 07:58:40;;;;;;;4.20;2.22;;;;;;;12.26;72.12;92391.95;1794647;79;21076;-80
2021/05/16 08:01:06;;;;;;;2.72;2.10;;;;;;;12.31;71.91;92383.27;1793497;79;21104;-76
2021/05/16 08:03:33;;;;;;;12.43;3.35;;;;;;;12.38;71.83;92384.45;1794975;79;21080;-80
2021/05/16 08:06:00;;;;;;;3.75;2.30;;;;;;;12.48;71.92;92388.82;1795899;79;21068;-82
2021/05/16 08:08:26;;;;;;;3.33;2.47;;;;;;;12.56;71.78;92388.02;1795022;79;21021;-73
2021/05/16 08:10:52;;;;;;;2.65;2.40;;;;;;;12.66;71.71;92392.42;1792413;79;21053;-79
2021/05/16 08:13:19;;;;;;;3.58;2.70;;;;;;;12.78;71.18;92392.28;1795217;79;21127;-77
2021/05/16 08:15:45;;;;;;;4.40;2.67;;;;;;;12.94;70.46;92388.13;1794906;79;21041;-77
2021/05/16 08:18:11;;;;;;;10.13;3.62;;;;;;;13.10;70.19;92383.17;1795406;79;21658;-77
2021/05/16 08:20:39;;;;;;;2.95;2.33;;;;;;;13.26;69.64;92387.79;1794529;79;21073;-80
2021/05/16 08:23:05;;;;;;;2.90;2.15;;;;;;;13.41;68.90;92384.78;1793779;79;21562;-77
2021/05/16 08:25:33;;;;;;;1.92;1.82;;;;;;;13.53;68.02;92382.63;1793557;79;21356;-77
2021/05/16 08:28:00;;;;;;;2.25;2.02;;;;;;;13.63;67.85;92387.61;1795570;79;21791;-76
2021/05/16 08:30:28;;;;;;;4.47;2.00;;;;;;;13.71;67.26;92380.70;1796137;79;21068;-79
2021/05/16 08:32:55;;;;;;;2.08;1.80;;;;;;;13.81;66.92;92378.84;1795134;79;21598;-80
2021/05/16 08:35:22;;;;;;;4.83;2.35;;;;;;;13.90;66.78;92383.62;1793239;79;21139;-77
2021/05/16 08:37:49;;;;;;;2.92;1.60;;;;;;;13.99;66.61;92382.33;1794778;79;21107;-77
2021/05/16 08:40:17;;;;;;;3.15;2.45;;;;;;;14.09;66.49;92372.41;1793513;79;21737;-77
2021/05/16 08:42:44;;;;;;;3.47;2.17;;;;;;;14.22;66.95;92372.39;1792475;79;21354;-79
2021/05/16 08:45:12;;;;;;;8.53;1.90;;;;;;;14.32;65.90;92372.59;1762586;81;21092;-76
2021/05/16 08:47:43;;;;;;;2.58;1.50;;;;;;;14.43;65.42;92368.73;1761580;80;21335;-77
2021/05/16 08:50:15;;;;;;;2.22;2.02;;;;;;;14.53;65.40;92373.10;1760413;81;21104;-74
2021/05/16 08:52:42;;;;;;;2.77;2.58;;;;;;;14.61;63.58;92373.00;1761769;81;20998;-76
2021/05/16 08:55:10;;;;;;;2.52;1.60;;;;;;;14.67;62.41;92375.91;1760126;81;21147;-76
2021/05/16 08:57:36;;;;;;;1.62;1.52;;;;;;;14.71;62.50;92362.89;1761820;81;21017;-77
2021/05/16 09:00:20;;;;;;;4.50;1.45;;;;;;;14.77;62.28;92366.56;1762007;81;21602;-77
2021/05/16 09:03:07;;;;;;;3.47;1.92;;;;;;;14.83;61.89;92366.16;1760285;81;21013;-78
2021/05/16 09:05:41;;;;;;;3.40;1.77;;;;;;;14.91;61.35;92361.18;1758948;81;21121;-77
2021/05/16 09:08:16;;;;;;;2.27;1.47;;;;;;;14.98;61.78;92355.44;1757716;80;21197;-76
2021/05/16 09:10:49;;;;;;;2.40;1.07;;;;;;;15.13;62.07;92357.03;1759720;80;21155;-77
2021/05/16 09:13:26;;;;;;;1.27;1.15;;;;;;;15.27;60.27;92357.87;1760132;81;21192;-78
2021/05/16 09:18:48;;;;;;;1.37;1.27;;;;;;;15.44;57.54;92350.91;1794621;79;20530;-76
2021/05/16 09:21:31;;;;;;;2.47;1.25;;;;;;;15.49;56.94;92355.03;1795336;79;21728;-77
2021/05/16 09:24:10;;;;;;;2.60;1.30;;;;;;;15.55;56.19;92358.11;1759630;81;21637;-77
2021/05/16 09:26:56;;;;;;;3.17;1.50;;;;;;;15.62;56.96;92363.16;1747265;81;21075;-77
2021/05/16 09:29:43;;;;;;;1.95;1.50;;;;;;;15.67;57.33;92363.34;1780520;78;21103;-77
2021/05/16 09:32:09;;;;;;;1.75;1.40;;;;;;;15.71;56.75;92365.33;1750830;81;21698;-77
2021/05/16 09:34:39;;;;;;;3.35;2.35;;;;;;;15.71;57.15;92363.95;1761236;81;21096;-74
2021/05/16 09:37:07;;;;;;;4.42;1.72;;;;;;;15.71;56.71;92363.95;1762150;81;21128;-77
2021/05/16 09:39:36;;;;;;;2.45;1.10;;;;;;;15.70;56.40;92365.18;1761541;81;21597;-77
2021/05/16 09:42:17;;;;;;;3.30;1.52;;;;;;;15.73;56.65;92358.04;1783154;79;21088;-78
2021/05/16 09:44:49;;;;;;;2.83;2.60;;;;;;;15.79;59.38;92350.11;1750098;78;21051;-76
2021/05/16 09:47:28;;;;;;;4.25;2.27;;;;;;;15.89;60.90;92346.03;1789992;77;21819;-75
2021/05/16 09:50:00;;;;;;;3.05;2.55;;;;;;;15.96;64.00;92343.77;1750132;81;21629;-78
2021/05/16 09:52:34;;;;;;;3.25;2.47;;;;;;;16.08;64.41;92347.58;1762417;80;21144;-79
2021/05/16 09:55:11;;;;;;;4.75;1.90;;;;;;;16.18;64.43;92349.73;1762988;81;20982;-76
2021/05/16 09:57:41;;;;;;;1.30;1.20;;;;;;;16.33;65.15;92345.16;1763022;81;21097;-77
2021/05/16 10:00:12;;;;;;;2.55;1.98;;;;;;;16.57;63.96;92342.55;1761970;81;21100;-74
2021/05/16 10:02:39;;;;;;;1.25;1.20;;;;;;;16.79;62.87;92342.40;1762748;81;21084;-76
2021/05/16 10:05:07;;;;;;;1.47;1.27;;;;;;;16.99;62.07;92332.28;1762746;80;21036;-79
2021/05/16 10:07:35;;;;;;;2.98;1.30;;;;;;;17.19;60.45;92322.17;1763317;81;21061;-77
2021/05/16 10:10:01;;;;;;;1.32;1.22;;;;;;;17.39;59.83;92318.87;1763387;80;21002;-77
2021/05/16 10:12:28;;;;;;;4.42;1.65;;;;;;;17.54;58.40;92319.72;1763304;80;21112;-79
2021/05/16 10:15:14;;;;;;;2.62;1.57;;;;;;;17.63;58.82;92311.41;1763089;81;21045;-75
2021/05/16 10:17:42;;;;;;;2.22;1.30;;;;;;;17.75;57.67;92317.16;1763393;81;20998;-74
2021/05/16 10:20:17;;;;;;;1.40;1.30;;;;;;;17.75;57.28;92322.06;1763376;80;21092;-78
2021/05/16 10:23:10;;;;;;;2.33;1.27;;;;;;;17.70;56.12;92320.69;1763694;80;21041;-77
2021/05/16 10:25:45;;;;;;;2.05;1.50;;;;;;;17.51;49.83;92315.14;1761601;81;21255;-75
2021/05/16 10:28:17;;;;;;;5.28;1.77;;;;;;;17.20;50.60;92316.81;1760747;80;21096;-83
2021/05/16 10:31:06;;;;;;;2.87;1.02;;;;;;;17.14;54.09;92313.16;1760563;81;21112;-78
2021/05/16 10:33:38;;;;;;;3.27;1.20;;;;;;;17.28;51.03;92307.01;1761479;80;21108;-76
2021/05/16 10:36:05;;;;;;;2.08;1.15;;;;;;;17.36;52.70;92304.07;1761636;80;21601;-76
2021/05/16 10:38:37;;;;;;;2.75;1.10;;;;;;;17.52;50.37;92301.55;1760731;80;21146;-78
2021/05/16 10:41:22;;;;;;;1.27;0.90;;;;;;;17.69;48.51;92293.68;1761942;81;21061;-78
2021/05/16 10:43:48;;;;;;;1.72;0.88;;;;;;;17.85;49.65;92296.04;1763805;81;20977;-76
2021/05/16 10:49:29;;;;;;;3.70;1.10;;;;;;;18.26;51.77;92289.48;1750251;81;20988;-82
2021/05/16 10:51:56;;;;;;;1.22;1.05;;;;;;;18.45;53.45;92279.08;1830800;77;21738;-78
2021/05/16 10:54:31;;;;;;;1.85;1.12;;;;;;;18.64;53.60;92269.41;1825657;78;21362;-76
2021/05/16 10:57:18;;;;;;;1.07;0.98;;;;;;;18.71;51.80;92277.19;1827412;77;21018;-79
2021/05/16 10:59:45;;;;;;;2.83;2.45;;;;;;;18.64;51.47;92271.41;1811264;77;21574;-75
2021/05/16 11:03:06;;;;;;;4.72;3.35;;;;;;;18.52;51.35;92264.94;1848627;77;21003;-74
2021/05/16 11:05:51;;;;;;;2.22;1.50;;;;;;;18.35;51.97;92263.87;1818941;78;21119;-76
2021/05/16 11:08:28;;;;;;;5.75;1.35;;;;;;;18.08;52.75;92267.61;1823223;78;21044;-76
2021/05/16 11:10:56;;;;;;;1.22;1.00;;;;;;;17.86;53.31;92267.92;1835786;77;21008;-76
2021/05/16 11:13:28;;;;;;;2.02;1.70;;;;;;;17.68;53.15;92265.44;1819161;78;21079;-75
2021/05/16 11:16:05;;;;;;;1.57;1.22;;;;;;;17.51;53.43;92262.17;1819206;78;21044;-74
2021/05/16 11:18:34;;;;;;;1.10;1.00;;;;;;;17.30;53.95;92259.25;1806817;79;21617;-78
2021/05/16 11:21:05;;;;;;;1.90;0.93;;;;;;;17.10;54.51;92254.90;1783740;79;21075;-76
2021/05/16 11:23:39;;;;;;;2.15;1.47;;;;;;;16.95;55.20;92255.56;1770898;80;21072;-76
2021/05/16 11:26:14;;;;;;;3.10;1.17;;;;;;;16.81;56.33;92252.71;1792488;77;21061;-76
2021/05/16 11:31:20;;;;;;;1.42;1.30;;;;;;;16.52;56.10;92263.60;1785814;80;21098;-78
2021/05/16 11:33:53;;;;;;;7.90;2.08;;;;;;;16.34;54.45;92268.50;1794181;79;21689;-76
2021/05/16 11:36:23;;;;;;;1.77;1.67;;;;;;;16.15;54.59;92266.38;1813742;78;21651;-77
2021/05/16 11:38:55;;;;;;;2.45;1.37;;;;;;;16.03;54.90;92267.31;1829107;77;21111;-80
2021/05/16 11:41:38;;;;;;;2.10;1.87;;;;;;;15.92;54.66;92264.27;1767305;78;21107;-77
2021/05/16 11:44:10;;;;;;;4.05;2.30;;;;;;;15.81;55.31;92278.41;1817540;78;21101;-79
2021/05/16 11:46:41;;;;;;;4.78;2.65;;;;;;;15.68;58.57;92266.23;1782004;80;21690;-78
2021/05/16 11:49:10;;;;;;;2.65;1.85;;;;;;;15.54;60.21;92256.59;1766044;80;21578;-76
2021/05/16 11:51:37;;;;;;;2.17;1.70;;;;;;;15.46;60.70;92259.47;1763162;80;21081;-77
2021/05/16 11:54:10;;;;;;;3.62;1.52;;;;;;;15.43;61.73;92254.14;1762605;81;21460;-75
2021/05/16 11:56:41;;;;;;;2.37;1.40;;;;;;;15.45;61.50;92258.54;1762874;80;21096;-76